Aérodrome :
LOGIN :

S'inscrire | Disclaimer

   EN    FR    IT 

 










Légende :    VFR   VFR Marginal   IFR   IFR Intensif   IFR Très Intensif
Visi : 
Plafond : 
>= 8 km
>= 3000ft
5 à 8 km
1000 à 3000 ft
1500m à 5 km
500 à 1000 ft
800 à 1500m
200 à 500 ft
< 800m
< 200 ft
Symboles :   Orages  Brouillard  Fortes neiges  Fortes précipitations  Vent > 20 kt
SIGMETs :   Divers  Orages  Givrage  Turbulence  Onde Orograph.  Cendres Volcan.






- Altitude de l'aérodrome : 90 ft
- Code IATA : NTE


LFRS - Nantes

DERNIER METAR :
  • 220700Z AUTO 13011KT 9999 ///TCU 07/06 Q0996 TEMPO 3000 -TSRA BKN020CB

METARs EXPIRÉS :
  • 220630Z AUTO 13009KT 9999 ///TCU 07/07 Q0997 TEMPO 3000 -TSRA BKN020CB
  • 220600Z AUTO 14010KT 9999 FEW040 SCT048 BKN056 08/07 Q0997 TEMPO 4500 SHRA BKN020TCU SCT030CB
  • 220530Z AUTO 13013KT 9999 -RA FEW008/// SCT049/// OVC058/// ///TCU 08/07 Q0997 TEMPO 4500 SHRA BKN020TCU SCT030CB
  • 220500Z AUTO 15010KT 9999 -RA FEW025/// SCT054/// OVC066/// ///CB 08/07 Q0998 TEMPO 4500 SHRA BECMG SCT030
  • 220430Z AUTO 17007KT 6000 RA SCT009/// BKN025/// BKN040/// ///CB 07/07 Q0998 TEMPO 4500 SHRA BECMG SCT030

TAF AMD TAF LFRS
Valide du 22 à 06h jusqu'au 23 à 12h UTC


220641Z 2206/2312 14010KT 9999 SCT030
TEMPO 2206/2208 4500 -SHRA BKN020TCU SCT030CB
PROB40
TEMPO 2207/2208 3000 -TSRA BKN020CB
BECMG 2209/2211 14015G25KT
BECMG 2212/2214 4500 -RA BKN020 SCT030TCU
TEMPO 2214/2219 16020G30KT 3000 RA BKN020 SCT030CB
BECMG 2219/2221 15014KT BKN009
BECMG 2300/2302 9999 NSW
BECMG 2303/2305 08006KT SCT017 BKN020
TEMPO 2306/2312 4500 -RA BKN010
ATIS : +33 2 40 05 12 74



MET'MAP, la Météo Aéronautique d'un coup d'oeil ! - Copyright ORBIFLY Décembre 2007 - Disclaimer

ORBIFLY MET'MAP TEAM :

Programmation & Développement : Alexandra Zaïnal
Conception & Développement : Baudouin d'Aumeries
Co-Programmation & Développement : Marc-Olivier Méhu
Soutien technique & logistique : Manuel Goepfert

Contact : metmap@orbifly.com




SOURCES & CREDITS :

   NOAA